sensor_id;sensor_type;location;lat;lon;timestamp;pressure;altitude;pressure_sealevel;temperature;humidity
38806;BME280;25635;51.146;17.162;2023-07-08T00:00:30;100700.55;;;12.81;68.35
38806;BME280;25635;51.146;17.162;2023-07-08T00:03:17;100698.30;;;12.78;68.43
38806;BME280;25635;51.146;17.162;2023-07-08T00:05:45;100697.62;;;12.75;68.46
38806;BME280;25635;51.146;17.162;2023-07-08T00:08:16;100694.70;;;12.71;68.43
38806;BME280;25635;51.146;17.162;2023-07-08T00:10:42;100694.56;;;12.66;68.65
38806;BME280;25635;51.146;17.162;2023-07-08T00:13:09;100696.16;;;12.63;68.55
38806;BME280;25635;51.146;17.162;2023-07-08T00:15:37;100695.87;;;12.56;68.66
38806;BME280;25635;51.146;17.162;2023-07-08T00:18:15;100692.39;;;12.53;68.69
38806;BME280;25635;51.146;17.162;2023-07-08T00:20:42;100690.48;;;12.50;68.67
38806;BME280;25635;51.146;17.162;2023-07-08T00:23:09;100691.92;;;12.46;68.78
38806;BME280;25635;51.146;17.162;2023-07-08T00:25:35;100693.00;;;12.42;68.88
38806;BME280;25635;51.146;17.162;2023-07-08T00:28:01;100697.73;;;12.39;69.03
38806;BME280;25635;51.146;17.162;2023-07-08T00:30:30;100695.33;;;12.35;69.05
38806;BME280;25635;51.146;17.162;2023-07-08T00:32:57;100696.40;;;12.32;69.06
38806;BME280;25635;51.146;17.162;2023-07-08T00:37:55;100693.48;;;12.24;69.18
38806;BME280;25635;51.146;17.162;2023-07-08T00:40:30;100697.01;;;12.19;69.28
38806;BME280;25635;51.146;17.162;2023-07-08T00:43:01;100696.34;;;12.15;69.28
38806;BME280;25635;51.146;17.162;2023-07-08T00:48:06;100696.41;;;12.06;70.07
38806;BME280;25635;51.146;17.162;2023-07-08T00:50:33;100692.58;;;12.03;69.88
38806;BME280;25635;51.146;17.162;2023-07-08T00:55:52;100691.19;;;12.00;69.75
38806;BME280;25635;51.146;17.162;2023-07-08T00:58:21;100687.19;;;11.99;70.10
38806;BME280;25635;51.146;17.162;2023-07-08T01:00:51;100689.98;;;11.99;70.26
38806;BME280;25635;51.146;17.162;2023-07-08T01:03:19;100684.92;;;11.96;70.41
38806;BME280;25635;51.146;17.162;2023-07-08T01:05:46;100683.36;;;11.95;70.67
38806;BME280;25635;51.146;17.162;2023-07-08T01:08:12;100680.03;;;11.95;70.65
38806;BME280;25635;51.146;17.162;2023-07-08T01:10:46;100683.37;;;11.95;70.76
38806;BME280;25635;51.146;17.162;2023-07-08T01:13:15;100683.35;;;11.95;70.84
38806;BME280;25635;51.146;17.162;2023-07-08T01:15:45;100679.52;;;11.95;70.76
38806;BME280;25635;51.146;17.162;2023-07-08T01:18:14;100684.24;;;11.93;70.65
38806;BME280;25635;51.146;17.162;2023-07-08T01:20:43;100682.15;;;11.91;70.82
38806;BME280;25635;51.146;17.162;2023-07-08T01:23:12;100678.65;;;11.87;70.99
38806;BME280;25635;51.146;17.162;2023-07-08T01:25:38;100675.17;;;11.84;70.94
38806;BME280;25635;51.146;17.162;2023-07-08T01:28:07;100673.45;;;11.81;70.90
38806;BME280;25635;51.146;17.162;2023-07-08T01:30:33;100675.38;;;11.79;70.84
38806;BME280;25635;51.146;17.162;2023-07-08T01:33:02;100672.27;;;11.73;70.84
38806;BME280;25635;51.146;17.162;2023-07-08T01:35:30;100672.63;;;11.69;70.80
38806;BME280;25635;51.146;17.162;2023-07-08T01:38:01;100674.04;;;11.66;71.20
38806;BME280;25635;51.146;17.162;2023-07-08T01:40:30;100672.46;;;11.66;72.11
38806;BME280;25635;51.146;17.162;2023-07-08T01:42:57;100672.98;;;11.67;72.31
38806;BME280;25635;51.146;17.162;2023-07-08T01:45:26;100671.59;;;11.70;72.35
38806;BME280;25635;51.146;17.162;2023-07-08T01:48:05;100665.63;;;11.72;72.13
38806;BME280;25635;51.146;17.162;2023-07-08T01:50:36;100662.31;;;11.73;71.84
38806;BME280;25635;51.146;17.162;2023-07-08T01:53:10;100662.68;;;11.70;72.05
38806;BME280;25635;51.146;17.162;2023-07-08T01:55:37;100662.52;;;11.67;72.17
38806;BME280;25635;51.146;17.162;2023-07-08T01:58:03;100666.21;;;11.64;72.13
38806;BME280;25635;51.146;17.162;2023-07-08T02:00:29;100664.45;;;11.64;72.47
38806;BME280;25635;51.146;17.162;2023-07-08T02:02:55;100669.33;;;11.65;72.21
38806;BME280;25635;51.146;17.162;2023-07-08T02:05:23;100667.08;;;11.61;71.81
38806;BME280;25635;51.146;17.162;2023-07-08T02:07:49;100669.91;;;11.55;72.00
38806;BME280;25635;51.146;17.162;2023-07-08T02:10:15;100670.96;;;11.52;72.05
38806;BME280;25635;51.146;17.162;2023-07-08T02:12:41;100673.25;;;11.50;72.65
38806;BME280;25635;51.146;17.162;2023-07-08T02:15:09;100668.73;;;11.47;72.57
38806;BME280;25635;51.146;17.162;2023-07-08T02:17:35;100669.42;;;11.44;72.36
38806;BME280;25635;51.146;17.162;2023-07-08T02:20:03;100672.05;;;11.43;72.22
38806;BME280;25635;51.146;17.162;2023-07-08T02:22:29;100670.66;;;11.41;72.27
38806;BME280;25635;51.146;17.162;2023-07-08T02:24:56;100673.98;;;11.39;72.26
38806;BME280;25635;51.146;17.162;2023-07-08T02:27:22;100672.79;;;11.35;72.35
38806;BME280;25635;51.146;17.162;2023-07-08T02:29:48;100671.39;;;11.33;72.48
38806;BME280;25635;51.146;17.162;2023-07-08T02:32:14;100671.74;;;11.29;72.95
38806;BME280;25635;51.146;17.162;2023-07-08T02:34:40;100667.57;;;11.27;72.91
38806;BME280;25635;51.146;17.162;2023-07-08T02:37:07;100666.88;;;11.26;72.55
38806;BME280;25635;51.146;17.162;2023-07-08T02:39:33;100664.79;;;11.27;72.73
38806;BME280;25635;51.146;17.162;2023-07-08T02:41:58;100666.86;;;11.29;72.64
38806;BME280;25635;51.146;17.162;2023-07-08T02:44:24;100666.19;;;11.27;72.63
38806;BME280;25635;51.146;17.162;2023-07-08T02:46:52;100669.69;;;11.22;72.61
38806;BME280;25635;51.146;17.162;2023-07-08T02:49:18;100670.23;;;11.15;72.49
38806;BME280;25635;51.146;17.162;2023-07-08T02:51:44;100673.90;;;11.08;72.60
38806;BME280;25635;51.146;17.162;2023-07-08T02:54:10;100672.88;;;11.01;72.90
38806;BME280;25635;51.146;17.162;2023-07-08T02:56:36;100671.67;;;10.94;73.41
38806;BME280;25635;51.146;17.162;2023-07-08T02:59:02;100671.84;;;10.90;73.66
38806;BME280;25635;51.146;17.162;2023-07-08T03:01:28;100672.38;;;10.88;73.40
38806;BME280;25635;51.146;17.162;2023-07-08T03:03:54;100668.02;;;10.89;73.51
38806;BME280;25635;51.146;17.162;2023-07-08T03:06:24;100669.07;;;10.90;73.67
38806;BME280;25635;51.146;17.162;2023-07-08T03:08:49;100665.58;;;10.91;73.71
38806;BME280;25635;51.146;17.162;2023-07-08T03:11:15;100665.21;;;10.93;74.22
38806;BME280;25635;51.146;17.162;2023-07-08T03:13:41;100668.35;;;10.95;74.69
38806;BME280;25635;51.146;17.162;2023-07-08T03:16:07;100667.66;;;10.97;75.19
38806;BME280;25635;51.146;17.162;2023-07-08T03:18:39;100666.78;;;10.98;74.71
38806;BME280;25635;51.146;17.162;2023-07-08T03:21:13;100669.75;;;11.00;74.50
38806;BME280;25635;51.146;17.162;2023-07-08T03:23:40;100674.95;;;11.05;74.40
38806;BME280;25635;51.146;17.162;2023-07-08T03:26:06;100678.10;;;11.08;74.51
38806;BME280;25635;51.146;17.162;2023-07-08T03:28:32;100673.73;;;11.11;74.65
38806;BME280;25635;51.146;17.162;2023-07-08T03:30:58;100674.06;;;11.15;74.66
38806;BME280;25635;51.146;17.162;2023-07-08T03:33:24;100673.53;;;11.17;74.62
38806;BME280;25635;51.146;17.162;2023-07-08T03:35:50;100675.63;;;11.19;74.49
38806;BME280;25635;51.146;17.162;2023-07-08T03:38:16;100673.19;;;11.18;74.63
38806;BME280;25635;51.146;17.162;2023-07-08T03:40:42;100673.19;;;11.18;74.61
38806;BME280;25635;51.146;17.162;2023-07-08T03:43:08;100677.54;;;11.20;74.59
38806;BME280;25635;51.146;17.162;2023-07-08T03:45:34;100672.29;;;11.23;74.71
38806;BME280;25635;51.146;17.162;2023-07-08T03:48:00;100673.84;;;11.28;75.03
38806;BME280;25635;51.146;17.162;2023-07-08T03:50:26;100671.74;;;11.32;75.81
38806;BME280;25635;51.146;17.162;2023-07-08T03:52:54;100674.00;;;11.36;76.24
38806;BME280;25635;51.146;17.162;2023-07-08T03:55:20;100677.65;;;11.41;75.73
38806;BME280;25635;51.146;17.162;2023-07-08T03:57:47;100672.73;;;11.46;75.85
38806;BME280;25635;51.146;17.162;2023-07-08T04:00:13;100675.67;;;11.54;76.64
38806;BME280;25635;51.146;17.162;2023-07-08T04:02:44;100667.77;;;11.66;77.20
38806;BME280;25635;51.146;17.162;2023-07-08T04:05:15;100665.77;;;11.79;77.23
38806;BME280;25635;51.146;17.162;2023-07-08T04:07:41;100667.28;;;11.92;77.27
38806;BME280;25635;51.146;17.162;2023-07-08T04:10:11;100672.80;;;12.07;77.95
38806;BME280;25635;51.146;17.162;2023-07-08T04:12:38;100673.91;;;12.23;78.17
38806;BME280;25635;51.146;17.162;2023-07-08T04:15:08;100670.99;;;12.39;78.12
38806;BME280;25635;51.146;17.162;2023-07-08T04:17:47;100670.34;;;12.55;77.64
38806;BME280;25635;51.146;17.162;2023-07-08T04:20:16;100669.98;;;12.74;77.73
38806;BME280;25635;51.146;17.162;2023-07-08T04:22:44;100669.09;;;12.93;77.48
38806;BME280;25635;51.146;17.162;2023-07-08T04:25:11;100668.90;;;13.13;77.40
38806;BME280;25635;51.146;17.162;2023-07-08T04:27:40;100667.81;;;13.34;77.15
38806;BME280;25635;51.146;17.162;2023-07-08T04:30:07;100665.64;;;13.54;77.22
38806;BME280;25635;51.146;17.162;2023-07-08T04:32:35;100666.23;;;13.76;77.19
38806;BME280;25635;51.146;17.162;2023-07-08T04:35:03;100667.84;;;13.98;76.98
38806;BME280;25635;51.146;17.162;2023-07-08T04:37:29;100663.86;;;14.18;76.83
38806;BME280;25635;51.146;17.162;2023-07-08T04:39:55;100664.07;;;14.39;76.47
38806;BME280;25635;51.146;17.162;2023-07-08T04:42:21;100666.20;;;14.60;76.61
38806;BME280;25635;51.146;17.162;2023-07-08T04:44:47;100667.05;;;14.81;76.06
38806;BME280;25635;51.146;17.162;2023-07-08T04:47:15;100664.92;;;15.02;75.56
38806;BME280;25635;51.146;17.162;2023-07-08T04:49:41;100664.66;;;15.24;75.94
38806;BME280;25635;51.146;17.162;2023-07-08T04:52:09;100668.27;;;15.46;75.37
38806;BME280;25635;51.146;17.162;2023-07-08T04:54:36;100664.53;;;15.66;75.06
38806;BME280;25635;51.146;17.162;2023-07-08T04:57:02;100665.52;;;15.85;75.38
38806;BME280;25635;51.146;17.162;2023-07-08T04:59:28;100665.61;;;16.05;75.31
38806;BME280;25635;51.146;17.162;2023-07-08T05:01:54;100664.06;;;16.26;75.12
38806;BME280;25635;51.146;17.162;2023-07-08T05:04:21;100657.27;;;16.44;74.61
38806;BME280;25635;51.146;17.162;2023-07-08T05:06:48;100661.55;;;16.63;74.47
38806;BME280;25635;51.146;17.162;2023-07-08T05:09:14;100659.95;;;16.85;74.66
38806;BME280;25635;51.146;17.162;2023-07-08T05:11:40;100654.79;;;17.07;74.10
38806;BME280;25635;51.146;17.162;2023-07-08T05:14:06;100654.66;;;17.24;73.58
38806;BME280;25635;51.146;17.162;2023-07-08T05:16:34;100656.85;;;17.46;73.72
38806;BME280;25635;51.146;17.162;2023-07-08T05:19:02;100657.29;;;17.67;73.16
38806;BME280;25635;51.146;17.162;2023-07-08T05:21:30;100661.30;;;17.86;72.77
38806;BME280;25635;51.146;17.162;2023-07-08T05:24:03;100660.97;;;18.04;72.32
38806;BME280;25635;51.146;17.162;2023-07-08T05:26:30;100661.31;;;18.26;72.56
38806;BME280;25635;51.146;17.162;2023-07-08T05:28:56;100659.71;;;18.53;72.52
38806;BME280;25635;51.146;17.162;2023-07-08T05:31:22;100657.86;;;18.82;72.33
38806;BME280;25635;51.146;17.162;2023-07-08T05:33:48;100659.34;;;19.11;71.68
38806;BME280;25635;51.146;17.162;2023-07-08T05:36:14;100659.22;;;19.38;71.64
38806;BME280;25635;51.146;17.162;2023-07-08T05:38:40;100655.25;;;19.64;70.95
38806;BME280;25635;51.146;17.162;2023-07-08T05:41:06;100654.44;;;19.90;70.43
38806;BME280;25635;51.146;17.162;2023-07-08T05:43:32;100653.63;;;20.15;69.29
38806;BME280;25635;51.146;17.162;2023-07-08T05:45:59;100653.45;;;20.37;68.89
38806;BME280;25635;51.146;17.162;2023-07-08T05:48:26;100652.77;;;20.58;67.87
38806;BME280;25635;51.146;17.162;2023-07-08T05:50:52;100657.68;;;20.80;67.76
38806;BME280;25635;51.146;17.162;2023-07-08T05:53:18;100654.66;;;21.01;67.31
38806;BME280;25635;51.146;17.162;2023-07-08T05:55:44;100655.81;;;21.26;66.53
38806;BME280;25635;51.146;17.162;2023-07-08T05:58:10;100657.88;;;21.52;65.81
38806;BME280;25635;51.146;17.162;2023-07-08T06:00:42;100656.67;;;21.74;65.80
38806;BME280;25635;51.146;17.162;2023-07-08T06:03:09;100658.30;;;21.99;65.49
38806;BME280;25635;51.146;17.162;2023-07-08T06:05:37;100660.38;;;22.26;65.07
38806;BME280;25635;51.146;17.162;2023-07-08T06:08:04;100660.56;;;22.52;64.56
38806;BME280;25635;51.146;17.162;2023-07-08T06:10:31;100667.04;;;22.78;64.04
38806;BME280;25635;51.146;17.162;2023-07-08T06:12:57;100663.37;;;23.04;63.37
38806;BME280;25635;51.146;17.162;2023-07-08T06:15:23;100661.77;;;23.25;62.44
38806;BME280;25635;51.146;17.162;2023-07-08T06:17:49;100659.90;;;23.50;62.54
38806;BME280;25635;51.146;17.162;2023-07-08T06:20:16;100650.79;;;23.76;61.58
38806;BME280;25635;51.146;17.162;2023-07-08T06:22:43;100658.55;;;24.04;61.24
38806;BME280;25635;51.146;17.162;2023-07-08T06:25:16;100653.98;;;24.33;59.51
38806;BME280;25635;51.146;17.162;2023-07-08T06:27:42;100654.78;;;24.60;59.73
38806;BME280;25635;51.146;17.162;2023-07-08T06:30:09;100657.49;;;24.86;59.20
38806;BME280;25635;51.146;17.162;2023-07-08T06:32:35;100653.05;;;25.12;58.52
38806;BME280;25635;51.146;17.162;2023-07-08T06:35:01;100648.48;;;25.37;57.92
38806;BME280;25635;51.146;17.162;2023-07-08T06:37:27;100649.13;;;25.61;57.46
38806;BME280;25635;51.146;17.162;2023-07-08T06:39:53;100651.21;;;25.87;56.45
38806;BME280;25635;51.146;17.162;2023-07-08T06:42:19;100652.88;;;26.11;55.58
38806;BME280;25635;51.146;17.162;2023-07-08T06:44:45;100654.52;;;26.30;55.43
38806;BME280;25635;51.146;17.162;2023-07-08T06:47:19;100657.35;;;26.57;54.70
38806;BME280;25635;51.146;17.162;2023-07-08T06:49:46;100658.33;;;26.85;54.30
38806;BME280;25635;51.146;17.162;2023-07-08T06:52:13;100659.25;;;27.08;53.40
38806;BME280;25635;51.146;17.162;2023-07-08T06:54:40;100655.45;;;27.29;53.28
38806;BME280;25635;51.146;17.162;2023-07-08T06:57:06;100657.67;;;27.51;52.80
38806;BME280;25635;51.146;17.162;2023-07-08T06:59:33;100655.66;;;27.71;52.05
38806;BME280;25635;51.146;17.162;2023-07-08T07:01:59;100655.77;;;27.95;52.07
38806;BME280;25635;51.146;17.162;2023-07-08T07:04:25;100662.96;;;28.18;51.28
38806;BME280;25635;51.146;17.162;2023-07-08T07:06:51;100665.89;;;28.35;50.44
38806;BME280;25635;51.146;17.162;2023-07-08T07:09:17;100663.17;;;28.59;50.45
38806;BME280;25635;51.146;17.162;2023-07-08T07:11:43;100659.46;;;28.77;49.16
38806;BME280;25635;51.146;17.162;2023-07-08T07:14:09;100662.04;;;28.95;48.87
38806;BME280;25635;51.146;17.162;2023-07-08T07:16:35;100661.02;;;29.17;48.59
38806;BME280;25635;51.146;17.162;2023-07-08T07:19:01;100658.56;;;29.37;48.32
38806;BME280;25635;51.146;17.162;2023-07-08T07:21:28;100666.39;;;29.56;48.05
38806;BME280;25635;51.146;17.162;2023-07-08T07:23:54;100668.48;;;29.77;47.36
38806;BME280;25635;51.146;17.162;2023-07-08T07:26:20;100668.04;;;29.98;46.73
38806;BME280;25635;51.146;17.162;2023-07-08T07:28:45;100668.12;;;30.13;45.91
38806;BME280;25635;51.146;17.162;2023-07-08T07:31:11;100667.13;;;30.27;45.41
38806;BME280;25635;51.146;17.162;2023-07-08T07:33:37;100670.30;;;30.45;45.12
38806;BME280;25635;51.146;17.162;2023-07-08T07:36:03;100671.58;;;30.58;44.34
38806;BME280;25635;51.146;17.162;2023-07-08T07:38:30;100674.47;;;30.68;43.99
38806;BME280;25635;51.146;17.162;2023-07-08T07:40:56;100674.61;;;30.81;43.57
38806;BME280;25635;51.146;17.162;2023-07-08T07:43:26;100673.84;;;30.99;43.45
38806;BME280;25635;51.146;17.162;2023-07-08T07:45:52;100671.10;;;31.12;42.95
38806;BME280;25635;51.146;17.162;2023-07-08T07:48:19;100671.78;;;31.27;42.75
38806;BME280;25635;51.146;17.162;2023-07-08T07:50:47;100669.17;;;31.44;41.92
38806;BME280;25635;51.146;17.162;2023-07-08T07:53:13;100674.09;;;31.56;41.12
38806;BME280;25635;51.146;17.162;2023-07-08T07:55:39;100674.02;;;31.63;40.71
38806;BME280;25635;51.146;17.162;2023-07-08T07:58:05;100671.89;;;31.68;40.02
38806;BME280;25635;51.146;17.162;2023-07-08T08:00:34;100674.62;;;31.82;40.55
38806;BME280;25635;51.146;17.162;2023-07-08T08:02:59;100670.02;;;31.98;39.40
38806;BME280;25635;51.146;17.162;2023-07-08T08:05:25;100670.44;;;32.01;38.87
38806;BME280;25635;51.146;17.162;2023-07-08T08:07:51;100665.19;;;31.97;39.09
38806;BME280;25635;51.146;17.162;2023-07-08T08:10:17;100664.65;;;32.03;38.79
38806;BME280;25635;51.146;17.162;2023-07-08T08:12:43;100667.38;;;32.13;38.30
38806;BME280;25635;51.146;17.162;2023-07-08T08:15:09;100665.70;;;32.17;37.81
38806;BME280;25635;51.146;17.162;2023-07-08T08:17:35;100672.20;;;32.29;38.20
38806;BME280;25635;51.146;17.162;2023-07-08T08:20:01;100671.33;;;32.48;37.76
38806;BME280;25635;51.146;17.162;2023-07-08T08:22:28;100669.83;;;32.63;37.61
38806;BME280;25635;51.146;17.162;2023-07-08T08:24:53;100671.44;;;32.78;36.40
38806;BME280;25635;51.146;17.162;2023-07-08T08:27:19;100666.12;;;32.83;36.13
38806;BME280;25635;51.146;17.162;2023-07-08T08:29:45;100664.71;;;32.90;36.04
38806;BME280;25635;51.146;17.162;2023-07-08T08:32:12;100664.55;;;33.01;35.79
38806;BME280;25635;51.146;17.162;2023-07-08T08:34:39;100662.83;;;33.20;35.15
38806;BME280;25635;51.146;17.162;2023-07-08T08:37:06;100661.98;;;33.34;34.56
38806;BME280;25635;51.146;17.162;2023-07-08T08:39:31;100666.27;;;33.48;34.32
38806;BME280;25635;51.146;17.162;2023-07-08T08:41:58;100667.30;;;33.56;34.76
38806;BME280;25635;51.146;17.162;2023-07-08T08:44:34;100663.42;;;33.73;33.60
38806;BME280;25635;51.146;17.162;2023-07-08T08:47:27;100660.13;;;33.85;34.15
38806;BME280;25635;51.146;17.162;2023-07-08T08:50:02;100659.38;;;34.07;33.63
38806;BME280;25635;51.146;17.162;2023-07-08T08:52:29;100656.02;;;34.23;32.82
38806;BME280;25635;51.146;17.162;2023-07-08T08:54:55;100662.56;;;34.26;32.55
38806;BME280;25635;51.146;17.162;2023-07-08T08:57:29;100663.68;;;34.45;32.91
38806;BME280;25635;51.146;17.162;2023-07-08T08:59:59;100659.02;;;34.63;31.86
38806;BME280;25635;51.146;17.162;2023-07-08T09:05:21;100650.61;;;34.86;31.08
38806;BME280;25635;51.146;17.162;2023-07-08T09:12:55;100650.86;;;35.12;30.18
38806;BME280;25635;51.146;17.162;2023-07-08T09:15:25;100654.80;;;35.21;30.23
38806;BME280;25635;51.146;17.162;2023-07-08T09:17:53;100650.23;;;35.34;29.96
38806;BME280;25635;51.146;17.162;2023-07-08T09:20:26;100645.64;;;35.46;29.91
38806;BME280;25635;51.146;17.162;2023-07-08T09:23:10;100645.05;;;35.65;30.79
38806;BME280;25635;51.146;17.162;2023-07-08T09:26:07;100646.52;;;35.74;29.65
38806;BME280;25635;51.146;17.162;2023-07-08T09:28:43;100639.37;;;35.76;29.59
38806;BME280;25635;51.146;17.162;2023-07-08T09:31:25;100644.92;;;35.94;29.77
38806;BME280;25635;51.146;17.162;2023-07-08T09:34:14;100641.41;;;36.04;28.97
38806;BME280;25635;51.146;17.162;2023-07-08T09:36:46;100638.83;;;36.04;28.38
38806;BME280;25635;51.146;17.162;2023-07-08T09:39:14;100634.84;;;36.04;28.95
38806;BME280;25635;51.146;17.162;2023-07-08T09:41:43;100636.15;;;36.06;28.24
38806;BME280;25635;51.146;17.162;2023-07-08T09:46:44;100628.58;;;36.27;28.69
38806;BME280;25635;51.146;17.162;2023-07-08T09:49:31;100630.41;;;36.45;28.40
38806;BME280;25635;51.146;17.162;2023-07-08T09:51:59;100619.92;;;36.64;28.24
38806;BME280;25635;51.146;17.162;2023-07-08T09:54:25;100615.20;;;36.74;27.11
38806;BME280;25635;51.146;17.162;2023-07-08T09:56:57;100617.21;;;36.73;27.32
38806;BME280;25635;51.146;17.162;2023-07-08T09:59:30;100619.05;;;36.76;27.65
38806;BME280;25635;51.146;17.162;2023-07-08T10:04:54;100612.57;;;36.88;27.22
38806;BME280;25635;51.146;17.162;2023-07-08T10:07:21;100613.94;;;37.00;27.36
38806;BME280;25635;51.146;17.162;2023-07-08T10:09:51;100613.88;;;37.13;27.53
38806;BME280;25635;51.146;17.162;2023-07-08T10:12:20;100613.92;;;37.31;27.57
38806;BME280;25635;51.146;17.162;2023-07-08T10:14:52;100608.20;;;37.39;27.16
38806;BME280;25635;51.146;17.162;2023-07-08T10:17:20;100608.61;;;37.51;26.82
38806;BME280;25635;51.146;17.162;2023-07-08T10:19:48;100609.73;;;37.59;26.87
38806;BME280;25635;51.146;17.162;2023-07-08T10:22:37;100613.03;;;37.68;27.21
38806;BME280;25635;51.146;17.162;2023-07-08T10:27:46;100603.52;;;38.00;26.74
38806;BME280;25635;51.146;17.162;2023-07-08T10:30:22;100603.95;;;38.02;25.57
38806;BME280;25635;51.146;17.162;2023-07-08T10:35:33;100602.05;;;37.72;25.15
38806;BME280;25635;51.146;17.162;2023-07-08T10:43:47;100595.77;;;37.88;24.89
38806;BME280;25635;51.146;17.162;2023-07-08T10:49:20;100592.52;;;38.13;26.15
38806;BME280;25635;51.146;17.162;2023-07-08T10:52:04;100597.45;;;38.14;24.65
38806;BME280;25635;51.146;17.162;2023-07-08T10:54:55;100596.82;;;38.12;24.74
38806;BME280;25635;51.146;17.162;2023-07-08T10:58:07;100595.27;;;38.19;24.56
38806;BME280;25635;51.146;17.162;2023-07-08T11:03:16;100593.11;;;38.35;24.16
38806;BME280;25635;51.146;17.162;2023-07-08T11:05:52;100590.14;;;38.42;24.77
38806;BME280;25635;51.146;17.162;2023-07-08T11:08:33;100586.23;;;38.58;24.84
38806;BME280;25635;51.146;17.162;2023-07-08T11:14:16;100582.77;;;38.82;24.15
38806;BME280;25635;51.146;17.162;2023-07-08T11:17:34;100579.60;;;38.90;24.57
38806;BME280;25635;51.146;17.162;2023-07-08T11:19:37;100578.95;;;39.02;24.59
38806;BME280;25635;51.146;17.162;2023-07-08T11:22:09;100574.40;;;39.09;24.53
38806;BME280;25635;51.146;17.162;2023-07-08T11:24:44;100575.15;;;39.10;24.40
38806;BME280;25635;51.146;17.162;2023-07-08T11:27:19;100571.81;;;39.09;24.16
38806;BME280;25635;51.146;17.162;2023-07-08T11:32:30;100570.67;;;38.96;23.73
38806;BME280;25635;51.146;17.162;2023-07-08T11:34:59;100568.40;;;38.99;23.71
38806;BME280;25635;51.146;17.162;2023-07-08T11:37:27;100565.15;;;39.07;24.14
38806;BME280;25635;51.146;17.162;2023-07-08T11:39:58;100562.42;;;39.20;24.38
38806;BME280;25635;51.146;17.162;2023-07-08T11:42:37;100563.57;;;39.41;24.67
38806;BME280;25635;51.146;17.162;2023-07-08T11:45:25;100565.20;;;39.49;23.61
38806;BME280;25635;51.146;17.162;2023-07-08T11:47:52;100567.42;;;39.40;23.43
38806;BME280;25635;51.146;17.162;2023-07-08T11:50:32;100566.86;;;39.39;23.23
38806;BME280;25635;51.146;17.162;2023-07-08T11:55:47;100564.27;;;39.42;22.95
38806;BME280;25635;51.146;17.162;2023-07-08T11:58:31;100559.94;;;39.46;23.16
38806;BME280;25635;51.146;17.162;2023-07-08T12:01:28;100558.86;;;39.45;23.13
38806;BME280;25635;51.146;17.162;2023-07-08T12:04:23;100555.80;;;39.40;22.75
38806;BME280;25635;51.146;17.162;2023-07-08T12:07:16;100552.77;;;39.32;22.66
38806;BME280;25635;51.146;17.162;2023-07-08T12:09:47;100553.39;;;39.05;22.45
38806;BME280;25635;51.146;17.162;2023-07-08T12:12:21;100556.83;;;39.01;22.78
38806;BME280;25635;51.146;17.162;2023-07-08T12:14:49;100557.10;;;39.09;22.94
38806;BME280;25635;51.146;17.162;2023-07-08T12:17:16;100551.05;;;39.13;22.40
38806;BME280;25635;51.146;17.162;2023-07-08T12:19:44;100547.27;;;39.13;22.38
38806;BME280;25635;51.146;17.162;2023-07-08T12:22:12;100544.91;;;39.13;22.60
38806;BME280;25635;51.146;17.162;2023-07-08T12:24:39;100542.79;;;39.18;23.06
38806;BME280;25635;51.146;17.162;2023-07-08T12:27:05;100544.87;;;39.23;23.01
38806;BME280;25635;51.146;17.162;2023-07-08T12:29:31;100540.22;;;39.21;23.37
38806;BME280;25635;51.146;17.162;2023-07-08T12:31:58;100536.23;;;39.25;23.35
38806;BME280;25635;51.146;17.162;2023-07-08T12:34:25;100535.73;;;39.29;23.21
38806;BME280;25635;51.146;17.162;2023-07-08T12:36:52;100536.86;;;39.35;22.69
38806;BME280;25635;51.146;17.162;2023-07-08T12:39:19;100536.58;;;39.30;22.26
38806;BME280;25635;51.146;17.162;2023-07-08T12:41:46;100533.45;;;39.35;23.04
38806;BME280;25635;51.146;17.162;2023-07-08T12:44:21;100528.27;;;39.49;22.68
38806;BME280;25635;51.146;17.162;2023-07-08T12:46:49;100526.91;;;39.45;21.80
38806;BME280;25635;51.146;17.162;2023-07-08T12:49:18;100526.48;;;39.38;22.17
38806;BME280;25635;51.146;17.162;2023-07-08T12:51:46;100525.45;;;39.48;21.87
38806;BME280;25635;51.146;17.162;2023-07-08T12:54:13;100524.70;;;39.42;21.71
38806;BME280;25635;51.146;17.162;2023-07-08T12:56:43;100523.80;;;39.41;21.66
38806;BME280;25635;51.146;17.162;2023-07-08T12:59:14;100520.39;;;39.39;21.57
38806;BME280;25635;51.146;17.162;2023-07-08T13:01:45;100514.49;;;39.41;21.47
38806;BME280;25635;51.146;17.162;2023-07-08T13:04:13;100513.27;;;39.43;21.77
38806;BME280;25635;51.146;17.162;2023-07-08T13:06:40;100515.17;;;39.51;22.02
38806;BME280;25635;51.146;17.162;2023-07-08T13:09:20;100514.01;;;39.56;21.55
38806;BME280;25635;51.146;17.162;2023-07-08T13:11:50;100511.55;;;39.48;21.45
38806;BME280;25635;51.146;17.162;2023-07-08T13:14:19;100511.28;;;39.40;21.40
38806;BME280;25635;51.146;17.162;2023-07-08T13:16:45;100512.94;;;39.27;21.02
38806;BME280;25635;51.146;17.162;2023-07-08T13:19:14;100510.79;;;39.19;21.17
38806;BME280;25635;51.146;17.162;2023-07-08T13:21:40;100504.97;;;39.05;21.11
38806;BME280;25635;51.146;17.162;2023-07-08T13:24:09;100499.67;;;39.01;21.72
38806;BME280;25635;51.146;17.162;2023-07-08T13:26:45;100496.44;;;39.11;22.10
38806;BME280;25635;51.146;17.162;2023-07-08T13:29:17;100494.66;;;39.16;21.94
38806;BME280;25635;51.146;17.162;2023-07-08T13:31:55;100492.66;;;39.21;21.97
38806;BME280;25635;51.146;17.162;2023-07-08T13:34:40;100493.18;;;39.29;21.77
38806;BME280;25635;51.146;17.162;2023-07-08T13:37:11;100486.77;;;39.38;21.96